Terminal Aerodrome Forecast
Issued by NWS

Home | Current Version | Previous Version | Text Only | Print | Product List | Glossary On
Versions: 1 2 3 4 5 6 7 8 9 10 11 12 13 14 15 16 17 18 19 20 21
839
FTUS43 KLSX 211730
TAFSUS
TAF
KSUS 211730Z 2118/2218 12006KT P6SM BKN250
     FM212100 16005KT P6SM SCT250
      TEMPO 2209/2213 4SM BR=

USA.gov is the U.S. government's official web portal to all federal, state and local government web resources and services.